createdAt,value
2022-12-23T00:01:18.493Z,99.47
2022-12-23T00:07:20.470Z,84.40
2022-12-23T00:13:43.377Z,91.07
2022-12-23T00:19:45.933Z,91.80
2022-12-23T00:25:48.402Z,83.40
2022-12-23T00:31:50.358Z,89.70
2022-12-23T00:37:52.310Z,86.67
2022-12-23T00:43:54.791Z,103.67
2022-12-23T00:49:57.257Z,81.17
2022-12-23T00:55:59.719Z,86.00
2022-12-23T01:02:20.405Z,81.63
2022-12-23T01:08:22.711Z,97.70
2022-12-23T01:14:26.210Z,90.83
2022-12-23T01:20:27.930Z,95.77
2022-12-23T01:26:33.149Z,91.37
2022-12-23T01:32:37.608Z,81.27
2022-12-23T01:38:40.078Z,106.93
2022-12-23T01:45:04.628Z,88.30
2022-12-23T01:51:26.831Z,95.93
2022-12-23T01:57:30.041Z,104.77
2022-12-23T02:03:46.127Z,97.73
2022-12-23T02:09:48.579Z,148.07
2022-12-23T02:16:19.212Z,118.40
2022-12-23T02:22:44.715Z,134.17
2022-12-23T02:29:20.353Z,107.47
2022-12-23T02:35:30.797Z,93.40
2022-12-23T02:41:32.513Z,108.43
2022-12-23T02:48:03.479Z,85.07
2022-12-23T02:54:11.289Z,99.30
2022-12-23T03:00:18.783Z,139.57
2022-12-23T03:06:31.273Z,110.00
2022-12-23T03:13:01.844Z,101.70
2022-12-23T03:19:42.457Z,104.90
2022-12-23T03:26:03.990Z,109.13
2022-12-23T03:32:08.479Z,132.67
2022-12-23T03:38:14.969Z,91.33
2022-12-23T03:44:22.452Z,107.30
2022-12-23T03:50:26.929Z,117.30
2022-12-23T03:56:39.457Z,120.30
2022-12-23T04:03:00.145Z,105.17
2022-12-23T04:09:03.467Z,111.13
2022-12-23T04:15:12.855Z,98.13
2022-12-23T04:21:15.212Z,100.03
2022-12-23T04:27:31.948Z,96.90
2022-12-23T04:33:34.398Z,108.17
2022-12-23T04:39:37.861Z,107.07
2022-12-23T04:45:40.345Z,106.97
2022-12-23T04:51:42.770Z,88.63
2022-12-23T04:57:47.400Z,145.27
2022-12-23T05:03:49.729Z,144.37
2022-12-23T05:09:52.155Z,124.30
2022-12-23T05:15:58.103Z,133.07
2022-12-23T05:22:01.058Z,108.23
2022-12-23T05:28:03.464Z,92.30
2022-12-23T05:34:08.437Z,102.00
2022-12-23T05:40:10.581Z,152.83
2022-12-23T05:46:13.040Z,153.30
2022-12-23T05:52:16.419Z,145.73
2022-12-23T05:58:18.899Z,259.17
2022-12-23T06:04:21.419Z,197.63
2022-12-23T06:10:23.807Z,139.63
2022-12-23T06:16:28.966Z,198.77
2022-12-23T06:22:31.736Z,133.63
2022-12-23T06:28:34.207Z,215.27
2022-12-23T06:34:36.734Z,152.07
2022-12-23T06:40:39.149Z,156.37
2022-12-23T06:46:43.595Z,123.27
2022-12-23T06:52:48.264Z,142.97
2022-12-23T06:58:50.550Z,258.67
2022-12-23T07:04:53.017Z,189.13
2022-12-23T07:11:02.504Z,196.87
2022-12-23T07:17:04.988Z,153.40
2022-12-23T07:23:07.413Z,166.13
2022-12-23T07:29:09.902Z,125.47
2022-12-23T07:35:12.391Z,142.23
2022-12-23T07:41:14.772Z,149.43
2022-12-23T07:47:17.228Z,110.50
2022-12-23T07:53:18.974Z,110.33
2022-12-23T07:59:21.162Z,106.00
2022-12-23T08:05:23.764Z,125.13
2022-12-23T08:11:26.195Z,140.43
2022-12-23T08:17:31.555Z,119.97
2022-12-23T08:23:34.029Z,129.93
2022-12-23T08:29:42.282Z,122.03
2022-12-23T08:35:44.033Z,117.03
2022-12-23T08:41:49.392Z,132.23
2022-12-23T08:47:51.199Z,108.93
2022-12-23T08:54:00.600Z,118.90
2022-12-23T09:00:03.876Z,122.73
2022-12-23T09:06:15.383Z,121.60
2022-12-23T09:12:17.826Z,135.43
2022-12-23T09:18:20.283Z,122.50
2022-12-23T09:24:22.536Z,142.83
2022-12-23T09:30:25.207Z,125.20
2022-12-23T09:36:27.668Z,123.17
2022-12-23T09:42:51.217Z,119.83
2022-12-23T09:49:09.755Z,139.93
2022-12-23T09:55:14.266Z,112.90
2022-12-23T10:01:41.486Z,119.47
2022-12-23T10:07:52.498Z,108.40
2022-12-23T10:14:03.421Z,109.43
2022-12-23T10:20:16.314Z,113.63
2022-12-23T10:26:26.837Z,111.03
2022-12-23T10:32:38.383Z,124.30
2022-12-23T10:38:59.831Z,111.37
2022-12-23T10:45:15.350Z,114.00
2022-12-23T10:51:35.969Z,115.90
2022-12-23T10:57:41.385Z,108.23
2022-12-23T11:04:00.284Z,105.33
2022-12-23T11:10:24.074Z,126.57
2022-12-23T11:16:30.517Z,122.07
2022-12-23T11:22:35.436Z,120.77
2022-12-23T11:28:53.932Z,120.83
2022-12-23T11:34:56.537Z,107.03
2022-12-23T11:41:02.883Z,103.03
2022-12-23T11:47:23.435Z,113.37
2022-12-23T11:53:26.976Z,112.53
2022-12-23T11:59:34.395Z,101.90
2022-12-23T12:05:42.349Z,117.93
2022-12-23T12:12:01.138Z,114.53
2022-12-23T12:18:12.837Z,117.63
2022-12-23T12:24:31.004Z,98.57
2022-12-23T12:30:45.965Z,100.10
2022-12-23T12:37:03.405Z,100.97
2022-12-23T12:43:27.023Z,106.77
2022-12-23T12:49:46.556Z,107.10
2022-12-23T12:56:17.116Z,94.10
2022-12-23T13:02:46.974Z,100.53
2022-12-23T13:09:06.245Z,98.60
2022-12-23T13:15:25.136Z,98.57
2022-12-23T13:21:45.290Z,114.13
2022-12-23T13:27:59.796Z,106.60
2022-12-23T13:34:30.977Z,101.53
2022-12-23T13:40:41.455Z,105.33
2022-12-23T13:46:58.379Z,113.27
2022-12-23T13:53:21.967Z,100.07
2022-12-23T13:59:39.439Z,96.23
2022-12-23T14:05:47.924Z,97.40
2022-12-23T14:11:56.243Z,87.97
2022-12-23T14:18:25.059Z,82.37
2022-12-23T14:24:58.562Z,101.57
2022-12-23T14:31:04.214Z,188.83
2022-12-23T14:37:21.649Z,175.30
2022-12-23T14:43:24.080Z,125.57
2022-12-23T14:49:43.123Z,162.23
2022-12-23T14:55:47.057Z,227.97
2022-12-23T15:01:53.581Z,170.73
2022-12-23T15:07:58.029Z,188.13
2022-12-23T15:14:05.465Z,168.37
2022-12-23T15:20:10.985Z,312.10
2022-12-23T15:26:13.396Z,208.23
2022-12-23T15:32:16.885Z,222.07
2022-12-23T15:38:22.302Z,268.00
2022-12-23T15:44:27.754Z,339.33
2022-12-23T15:50:31.230Z,274.13
2022-12-23T15:56:41.446Z,230.33
2022-12-23T16:03:02.793Z,230.53
2022-12-23T16:09:14.767Z,213.60
2022-12-23T16:15:24.257Z,175.37
2022-12-23T16:21:32.487Z,188.37
2022-12-23T16:27:44.199Z,192.43
2022-12-23T16:33:52.685Z,205.67
2022-12-23T16:39:58.266Z,236.40
2022-12-23T16:46:06.762Z,317.87
2022-12-23T16:52:18.118Z,225.30
2022-12-23T16:58:20.562Z,243.97
2022-12-23T17:04:24.173Z,231.23
2022-12-23T17:10:26.871Z,237.60
2022-12-23T17:16:29.020Z,199.73
2022-12-23T17:22:34.418Z,212.63
2022-12-23T17:28:36.855Z,226.20
2022-12-23T17:34:39.325Z,285.80
2022-12-23T17:40:42.810Z,290.70
2022-12-23T17:46:47.229Z,227.83
2022-12-23T17:52:49.690Z,184.57
2022-12-23T17:58:52.183Z,220.17
2022-12-23T18:04:54.609Z,242.60
2022-12-23T18:10:59.068Z,257.60
2022-12-23T18:17:01.631Z,229.77
2022-12-23T18:23:04.057Z,282.50
2022-12-23T18:29:07.452Z,301.93
2022-12-23T18:35:26.988Z,284.83
2022-12-23T18:41:29.438Z,291.50
2022-12-23T18:47:31.888Z,172.50
2022-12-23T18:53:34.369Z,146.33
2022-12-23T18:59:38.814Z,177.00
2022-12-23T19:05:41.313Z,303.23
2022-12-23T19:11:43.617Z,228.53
2022-12-23T19:17:46.218Z,254.33
2022-12-23T19:23:48.665Z,206.20
2022-12-23T19:29:52.903Z,211.27
2022-12-23T19:35:55.730Z,182.17
2022-12-23T19:41:58.106Z,193.93
2022-12-23T19:48:00.595Z,270.07
2022-12-23T19:54:05.589Z,203.57
2022-12-23T20:00:08.391Z,198.50
2022-12-23T20:06:29.035Z,235.83
2022-12-23T20:12:39.448Z,173.70
2022-12-23T20:18:42.030Z,159.47
2022-12-23T20:24:44.449Z,170.67
2022-12-23T20:30:49.999Z,158.90
2022-12-23T20:36:52.925Z,158.20
2022-12-23T20:42:54.918Z,156.17
2022-12-23T20:48:57.373Z,160.33
2022-12-23T20:55:01.933Z,152.33
2022-12-23T21:01:12.406Z,203.33
2022-12-23T21:07:14.805Z,194.63
2022-12-23T21:13:17.245Z,155.67
2022-12-23T21:19:24.738Z,144.77
2022-12-23T21:25:27.171Z,155.33
2022-12-23T21:31:31.752Z,200.20
2022-12-23T21:37:37.120Z,202.67
2022-12-23T21:43:39.618Z,184.80
2022-12-23T21:49:43.055Z,147.10
2022-12-23T21:55:45.508Z,150.67
2022-12-23T22:01:48.000Z,210.97
2022-12-23T22:07:50.412Z,249.00
2022-12-23T22:13:52.784Z,260.90
2022-12-23T22:19:55.365Z,173.57
2022-12-23T22:25:57.829Z,216.60
2022-12-23T22:32:00.327Z,147.27
2022-12-23T22:38:02.258Z,153.70
2022-12-23T22:44:07.186Z,222.70
2022-12-23T22:50:09.306Z,172.13
2022-12-23T22:56:14.122Z,170.63
2022-12-23T23:02:16.639Z,173.03
2022-12-23T23:08:19.075Z,187.33
2022-12-23T23:14:21.553Z,156.57
2022-12-23T23:20:23.986Z,159.83
2022-12-23T23:26:28.552Z,139.90
2022-12-23T23:32:31.075Z,156.90
2022-12-23T23:38:33.432Z,130.87
2022-12-23T23:44:36.969Z,119.57
2022-12-23T23:50:40.396Z,123.53
2022-12-23T23:56:42.864Z,145.90
